Rockwood, Oregon
Current Conditions -  °F | °C
As of 5:10 AM on Friday 24 Oct 2014 (Local Time) from KTTD Reporting Station
Broken Clouds Broken Clouds  
Wind Chill: 52°   Ceiling: 7500
Heat Index: 52°   Visibility: 10mi
Dew Point: 49°   Wind: 6mph
Humidity: 89%   Direction: 120°ESE
Pressure: 30.02"   Gusts: NA
Location:  45.5135°N, 122.496°W
Report Text: KTTD 241210Z AUTO 12005KT 10SM FEW007 BKN075 11/09 A3002 RMK AO2 T01110094 TSNO
Loading
Personal Weather Stations






























Interactive Weather Map
Tropical Storm Tracking
New forecast layout! Learn more

10-Day Weather Forecast

Advertisements
Track Severe Weather on mobile